createdAt,value
2017-08-20T00:00:01.072Z,0
2017-08-20T00:01:02.896Z,0
2017-08-20T00:02:04.718Z,0
2017-08-20T00:03:06.606Z,0
2017-08-20T00:04:08.492Z,0
2017-08-20T00:05:10.375Z,0
2017-08-20T00:06:24.530Z,0
2017-08-20T00:07:26.424Z,0
2017-08-20T00:08:28.308Z,0
2017-08-20T00:09:30.198Z,0
2017-08-20T00:10:32.018Z,0
2017-08-20T00:11:33.843Z,0
2017-08-20T00:12:35.730Z,0
2017-08-20T00:13:37.616Z,0
2017-08-20T00:14:39.507Z,0
2017-08-20T00:15:53.673Z,0
2017-08-20T00:16:55.558Z,0
2017-08-20T00:17:57.447Z,0
2017-08-20T00:18:59.331Z,0
2017-08-20T00:20:01.155Z,0
2017-08-20T00:21:02.979Z,0
2017-08-20T00:22:04.863Z,0
2017-08-20T00:23:06.710Z,0
2017-08-20T00:24:08.530Z,0
2017-08-20T00:25:22.734Z,0
2017-08-20T00:26:24.616Z,0
2017-08-20T00:27:26.503Z,0
2017-08-20T00:28:28.390Z,0
2017-08-20T00:29:30.211Z,0
2017-08-20T00:30:32.036Z,0
2017-08-20T00:31:33.924Z,0
2017-08-20T00:32:35.806Z,0
2017-08-20T00:33:37.685Z,0
2017-08-20T00:34:51.852Z,0
2017-08-20T00:35:53.745Z,0
2017-08-20T00:36:55.632Z,0
2017-08-20T00:37:57.510Z,0
2017-08-20T00:38:59.334Z,0
2017-08-20T00:40:01.156Z,0
2017-08-20T00:41:03.038Z,0
2017-08-20T00:42:04.920Z,0
2017-08-20T00:43:06.804Z,0
2017-08-20T00:44:20.971Z,0
2017-08-20T00:45:22.852Z,0
2017-08-20T00:46:24.738Z,0
2017-08-20T00:47:26.621Z,0
2017-08-20T00:48:28.443Z,0
2017-08-20T00:49:30.264Z,0
2017-08-20T00:50:32.148Z,0
2017-08-20T00:51:34.031Z,0
2017-08-20T00:52:35.910Z,0
2017-08-20T00:53:50.077Z,0
2017-08-20T00:54:51.957Z,0
2017-08-20T00:55:53.845Z,0
2017-08-20T00:56:55.727Z,0
2017-08-20T00:57:57.559Z,0
2017-08-20T00:58:59.374Z,0
2017-08-20T01:00:01.258Z,0
2017-08-20T01:01:03.138Z,0
2017-08-20T01:02:05.021Z,0
2017-08-20T01:03:19.187Z,0
2017-08-20T01:04:21.079Z,0
2017-08-20T01:05:22.962Z,0
2017-08-20T01:06:24.844Z,0
2017-08-20T01:07:26.668Z,0
2017-08-20T01:08:28.507Z,0
2017-08-20T01:09:30.383Z,0
2017-08-20T01:10:32.263Z,0
2017-08-20T01:11:34.145Z,0
2017-08-20T01:12:48.299Z,0
2017-08-20T01:13:50.192Z,0
2017-08-20T01:14:52.074Z,0
2017-08-20T01:15:53.957Z,0
2017-08-20T01:16:55.778Z,0
2017-08-20T01:17:57.612Z,0
2017-08-20T01:18:59.493Z,0
2017-08-20T01:20:01.372Z,0
2017-08-20T01:21:03.215Z,0
2017-08-20T01:22:17.371Z,0
2017-08-20T01:23:19.254Z,0
2017-08-20T01:24:21.139Z,0
2017-08-20T01:25:23.023Z,0
2017-08-20T01:26:24.858Z,0
2017-08-20T01:27:26.680Z,0
2017-08-20T01:28:28.560Z,0
2017-08-20T01:29:30.442Z,0
2017-08-20T01:30:32.324Z,0
2017-08-20T01:31:46.488Z,0
2017-08-20T01:32:48.378Z,0
2017-08-20T01:33:50.269Z,0
2017-08-20T01:34:52.147Z,0
2017-08-20T01:35:53.969Z,0
2017-08-20T01:36:56.768Z,0
2017-08-20T01:37:58.648Z,0
2017-08-20T01:39:00.539Z,0
2017-08-20T01:40:02.418Z,0
2017-08-20T01:41:16.584Z,0
2017-08-20T01:42:18.460Z,0
2017-08-20T01:43:20.338Z,0
2017-08-20T01:44:22.216Z,0
2017-08-20T01:45:24.037Z,0
2017-08-20T01:46:25.867Z,0
2017-08-20T01:47:27.746Z,0
2017-08-20T01:48:29.636Z,0
2017-08-20T01:49:31.527Z,0
2017-08-20T01:50:45.680Z,0
2017-08-20T01:51:47.569Z,0
2017-08-20T01:52:49.445Z,0
2017-08-20T01:53:51.341Z,0
2017-08-20T01:54:53.155Z,0
2017-08-20T01:55:54.991Z,0
2017-08-20T01:56:56.869Z,0
2017-08-20T01:57:58.747Z,0
2017-08-20T01:59:00.632Z,0
2017-08-20T02:00:14.795Z,0
2017-08-20T02:01:16.684Z,0
2017-08-20T02:02:18.563Z,0
2017-08-20T02:03:20.453Z,0
2017-08-20T02:04:22.274Z,0
2017-08-20T02:05:24.106Z,0
2017-08-20T02:06:25.987Z,0
2017-08-20T02:07:27.864Z,0
2017-08-20T02:08:29.752Z,0
2017-08-20T02:09:43.952Z,0
2017-08-20T02:10:45.842Z,0
2017-08-20T02:11:47.720Z,0
2017-08-20T02:12:49.596Z,0
2017-08-20T02:13:51.425Z,0
2017-08-20T02:14:53.246Z,0
2017-08-20T02:15:55.136Z,0
2017-08-20T02:16:57.015Z,0
2017-08-20T02:17:58.896Z,0
2017-08-20T02:19:13.062Z,0
2017-08-20T02:20:14.939Z,0
2017-08-20T02:21:16.829Z,0
2017-08-20T02:22:18.716Z,0
2017-08-20T02:23:20.539Z,0
2017-08-20T02:24:22.372Z,0
2017-08-20T02:25:24.248Z,0
2017-08-20T02:26:26.137Z,0
2017-08-20T02:27:28.026Z,0
2017-08-20T02:28:42.178Z,0
2017-08-20T02:29:44.058Z,0
2017-08-20T02:30:45.935Z,0
2017-08-20T02:31:47.824Z,0
2017-08-20T02:32:49.643Z,0
2017-08-20T02:33:51.473Z,0
2017-08-20T02:34:53.318Z,0
2017-08-20T02:35:55.148Z,0
2017-08-20T02:36:56.987Z,0
2017-08-20T02:38:11.138Z,0
2017-08-20T02:39:13.026Z,0
2017-08-20T02:40:14.904Z,0
2017-08-20T02:41:16.793Z,0
2017-08-20T02:42:18.614Z,0
2017-08-20T02:43:20.435Z,0
2017-08-20T02:44:22.327Z,0
2017-08-20T02:45:24.206Z,0
2017-08-20T02:46:26.095Z,0
2017-08-20T02:47:40.248Z,0
2017-08-20T02:48:42.126Z,0
2017-08-20T02:49:44.004Z,0
2017-08-20T02:50:45.895Z,0
2017-08-20T02:51:47.714Z,0
2017-08-20T02:52:49.534Z,0
2017-08-20T02:53:51.417Z,0
2017-08-20T02:54:53.306Z,0
2017-08-20T02:55:55.196Z,0
2017-08-20T02:57:09.362Z,0
2017-08-20T02:58:11.241Z,0
2017-08-20T02:59:13.121Z,0
2017-08-20T03:00:15.004Z,0
2017-08-20T03:01:16.820Z,0
2017-08-20T03:02:18.639Z,0
2017-08-20T03:03:20.531Z,0
2017-08-20T03:04:22.409Z,0
2017-08-20T03:05:24.286Z,0
2017-08-20T03:06:38.466Z,0
2017-08-20T03:07:40.364Z,0
2017-08-20T03:08:42.240Z,0
2017-08-20T03:09:44.119Z,0
2017-08-20T03:10:45.939Z,0
2017-08-20T03:11:47.757Z,0
2017-08-20T03:12:49.638Z,0
2017-08-20T03:13:51.514Z,0
2017-08-20T03:14:53.391Z,0
2017-08-20T03:16:07.544Z,0
2017-08-20T03:17:09.432Z,0
2017-08-20T03:18:11.312Z,0
2017-08-20T03:19:13.201Z,0
2017-08-20T03:20:15.033Z,0
2017-08-20T03:21:16.856Z,0
2017-08-20T03:22:18.735Z,0
2017-08-20T03:23:20.613Z,0
2017-08-20T03:24:22.492Z,4
2017-08-20T03:25:36.655Z,4
2017-08-20T03:26:38.544Z,4
2017-08-20T03:27:40.428Z,4
2017-08-20T03:28:42.299Z,4
2017-08-20T03:29:44.118Z,8
2017-08-20T03:30:45.940Z,8
2017-08-20T03:31:47.818Z,8
2017-08-20T03:32:49.708Z,8
2017-08-20T03:33:51.584Z,8
2017-08-20T03:35:05.748Z,12
2017-08-20T03:36:07.629Z,16
2017-08-20T03:37:09.520Z,20
2017-08-20T03:38:11.400Z,20
2017-08-20T03:39:13.220Z,28
2017-08-20T03:40:15.051Z,32
2017-08-20T03:41:16.931Z,32
2017-08-20T03:42:18.811Z,40
2017-08-20T03:43:20.690Z,48
2017-08-20T03:44:34.858Z,56
2017-08-20T03:45:36.735Z,60
2017-08-20T03:46:38.625Z,68
2017-08-20T03:47:40.513Z,80
2017-08-20T03:48:42.344Z,84
2017-08-20T03:49:44.175Z,92
2017-08-20T03:50:46.058Z,104
2017-08-20T03:51:47.949Z,112
2017-08-20T03:52:49.826Z,124
2017-08-20T03:54:04.012Z,140
2017-08-20T03:55:05.873Z,156
2017-08-20T03:56:07.752Z,172
2017-08-20T03:57:09.644Z,192
2017-08-20T03:58:11.464Z,208
2017-08-20T03:59:13.287Z,228
2017-08-20T04:00:15.170Z,256
2017-08-20T04:01:17.061Z,280
2017-08-20T04:02:18.950Z,312
2017-08-20T04:03:33.104Z,364
2017-08-20T04:04:34.986Z,412
2017-08-20T04:05:36.868Z,468
2017-08-20T04:06:38.771Z,520
2017-08-20T04:07:40.583Z,576
2017-08-20T04:08:42.418Z,632
2017-08-20T04:09:44.311Z,700
2017-08-20T04:10:46.194Z,764
2017-08-20T04:11:48.073Z,832
2017-08-20T04:13:02.241Z,912
2017-08-20T04:14:04.120Z,980
2017-08-20T04:15:06.011Z,1036
2017-08-20T04:16:07.894Z,1092
2017-08-20T04:17:09.720Z,1148
2017-08-20T04:18:11.544Z,1188
2017-08-20T04:19:13.439Z,1236
2017-08-20T04:20:15.331Z,1284
2017-08-20T04:21:17.212Z,1336
2017-08-20T04:22:31.372Z,1400
2017-08-20T04:23:33.253Z,1448
2017-08-20T04:24:35.138Z,1508
2017-08-20T04:25:37.017Z,1552
2017-08-20T04:26:38.843Z,1588
2017-08-20T04:27:40.667Z,1620
2017-08-20T04:28:42.562Z,1656
2017-08-20T04:29:44.459Z,1700
2017-08-20T04:30:46.339Z,1744
2017-08-20T04:32:00.506Z,1788
2017-08-20T04:33:02.402Z,1836
2017-08-20T04:34:04.295Z,1844
2017-08-20T04:35:06.178Z,1832
2017-08-20T04:36:08.012Z,1856
2017-08-20T04:37:09.835Z,1888
2017-08-20T04:38:11.721Z,1940
2017-08-20T04:39:13.614Z,1996
2017-08-20T04:40:15.498Z,2076
2017-08-20T04:41:29.655Z,2180
2017-08-20T04:42:31.544Z,2256
2017-08-20T04:43:33.421Z,2360
2017-08-20T04:44:35.303Z,2512
2017-08-20T04:45:37.129Z,2616
2017-08-20T04:46:38.964Z,2736
2017-08-20T04:47:40.847Z,2856
2017-08-20T04:48:42.730Z,2920
2017-08-20T04:49:44.621Z,3028
2017-08-20T04:50:58.787Z,3164
2017-08-20T04:52:00.682Z,3248
2017-08-20T04:53:02.559Z,3284
2017-08-20T04:54:04.456Z,3248
2017-08-20T04:55:06.282Z,3240
2017-08-20T04:56:08.116Z,3240
2017-08-20T04:57:10.002Z,3216
2017-08-20T04:58:11.883Z,3188
2017-08-20T04:59:13.773Z,3140
2017-08-20T05:00:27.941Z,3156
2017-08-20T05:01:29.836Z,3216
2017-08-20T05:02:31.732Z,3284
2017-08-20T05:03:33.612Z,3328
2017-08-20T05:04:35.441Z,3376
2017-08-20T05:05:37.260Z,3424
2017-08-20T05:06:39.146Z,3500
2017-08-20T05:07:41.039Z,3596
2017-08-20T05:08:42.921Z,3708
2017-08-20T05:09:57.089Z,3864
2017-08-20T05:10:58.984Z,3932
2017-08-20T05:12:00.877Z,3968
2017-08-20T05:13:02.761Z,4000
2017-08-20T05:14:04.597Z,4040
2017-08-20T05:15:06.421Z,4100
2017-08-20T05:16:08.304Z,4204
2017-08-20T05:17:10.198Z,4320
2017-08-20T05:18:12.082Z,4416
2017-08-20T05:19:26.252Z,4516
2017-08-20T05:20:28.137Z,4616
2017-08-20T05:21:30.029Z,4672
2017-08-20T05:22:31.928Z,4704
2017-08-20T05:23:33.752Z,4748
2017-08-20T05:24:35.587Z,4764
2017-08-20T05:25:37.483Z,4732
2017-08-20T05:26:39.368Z,4732
2017-08-20T05:27:41.261Z,4812
2017-08-20T05:28:55.429Z,4920
2017-08-20T05:29:57.313Z,4968
2017-08-20T05:30:59.206Z,4992
2017-08-20T05:32:01.091Z,4980
2017-08-20T05:33:02.916Z,4948
2017-08-20T05:34:04.753Z,4908
2017-08-20T05:35:06.650Z,4868
2017-08-20T05:36:08.535Z,4864
2017-08-20T05:37:10.431Z,4896
2017-08-20T05:38:24.588Z,4956
2017-08-20T05:39:26.483Z,4944
2017-08-20T05:40:28.377Z,4880
2017-08-20T05:41:30.265Z,4800
2017-08-20T05:42:32.090Z,4724
2017-08-20T05:43:33.915Z,4660
2017-08-20T05:44:35.798Z,4560
2017-08-20T05:45:37.683Z,4424
2017-08-20T05:46:39.563Z,4340
2017-08-20T05:47:53.723Z,4376
2017-08-20T05:48:55.606Z,4452
2017-08-20T05:49:57.494Z,4612
2017-08-20T05:50:59.374Z,4796
2017-08-20T05:52:01.200Z,5008
2017-08-20T05:53:03.027Z,5180
2017-08-20T05:54:04.914Z,5292
2017-08-20T05:55:06.797Z,5408
2017-08-20T05:56:08.695Z,5620
2017-08-20T05:57:22.903Z,5880
2017-08-20T05:58:24.788Z,6048
2017-08-20T05:59:26.673Z,6232
2017-08-20T06:00:28.555Z,6324
2017-08-20T06:01:30.398Z,6292
2017-08-20T06:02:32.226Z,6184
2017-08-20T06:03:34.109Z,6000
2017-08-20T06:04:35.994Z,5828
2017-08-20T06:05:37.879Z,5732
2017-08-20T06:06:52.037Z,5492
2017-08-20T06:07:53.923Z,5256
2017-08-20T06:08:55.809Z,5132
2017-08-20T06:09:57.693Z,4980
2017-08-20T06:10:59.521Z,4872
2017-08-20T06:12:01.348Z,4772
2017-08-20T06:13:03.239Z,4720
2017-08-20T06:14:05.123Z,4736
2017-08-20T06:15:07.008Z,4740
2017-08-20T06:16:21.169Z,4812
2017-08-20T06:17:23.057Z,4936
2017-08-20T06:18:24.944Z,5076
2017-08-20T06:19:26.825Z,5232
2017-08-20T06:20:28.654Z,5372
2017-08-20T06:21:30.482Z,5552
2017-08-20T06:22:32.364Z,5788
2017-08-20T06:23:34.259Z,6024
2017-08-20T06:24:36.156Z,6176
2017-08-20T06:25:50.331Z,6388
2017-08-20T06:26:52.219Z,6488
2017-08-20T06:27:54.104Z,6524
2017-08-20T06:28:55.989Z,6568
2017-08-20T06:29:57.818Z,6760
2017-08-20T06:30:59.650Z,6952
2017-08-20T06:32:01.537Z,7188
2017-08-20T06:33:03.424Z,7396
2017-08-20T06:34:05.307Z,7484
2017-08-20T06:35:19.469Z,7436
2017-08-20T06:36:21.355Z,7244
2017-08-20T06:37:23.242Z,7076
2017-08-20T06:38:25.123Z,7156
2017-08-20T06:39:26.952Z,7232
2017-08-20T06:40:28.777Z,7236
2017-08-20T06:41:30.698Z,7352
2017-08-20T06:42:32.595Z,7400
2017-08-20T06:43:34.488Z,7292
2017-08-20T06:44:48.653Z,6792
2017-08-20T06:45:50.539Z,6472
2017-08-20T06:46:52.425Z,6068
2017-08-20T06:47:54.308Z,5732
2017-08-20T06:48:56.148Z,5460
2017-08-20T06:49:57.980Z,5316
2017-08-20T06:50:59.863Z,5340
2017-08-20T06:52:01.759Z,5452
2017-08-20T06:53:03.654Z,5532
2017-08-20T06:54:17.826Z,5892
2017-08-20T06:55:19.711Z,6100
2017-08-20T06:56:21.597Z,6164
2017-08-20T06:57:23.481Z,6176
2017-08-20T06:58:25.333Z,6276
2017-08-20T06:59:27.159Z,6364
2017-08-20T07:00:29.043Z,6528
2017-08-20T07:01:30.940Z,6680
2017-08-20T07:02:32.825Z,6812
2017-08-20T07:03:46.996Z,6848
2017-08-20T07:04:48.883Z,6672
2017-08-20T07:05:50.770Z,6424
2017-08-20T07:06:52.653Z,6220
2017-08-20T07:07:54.491Z,6040
2017-08-20T07:08:56.317Z,5792
2017-08-20T07:09:58.204Z,5496
2017-08-20T07:11:00.093Z,5176
2017-08-20T07:12:01.976Z,4964
2017-08-20T07:13:16.151Z,4904
2017-08-20T07:14:18.036Z,4828
2017-08-20T07:15:19.930Z,4884
2017-08-20T07:16:21.814Z,4840
2017-08-20T07:17:23.652Z,4712
2017-08-20T07:18:25.480Z,4660
2017-08-20T07:19:27.365Z,4728
2017-08-20T07:20:29.259Z,4740
2017-08-20T07:21:31.155Z,4776
2017-08-20T07:22:45.315Z,4852
2017-08-20T07:23:47.200Z,4844
2017-08-20T07:24:49.095Z,4912
2017-08-20T07:25:50.978Z,4976
2017-08-20T07:26:52.815Z,5172
2017-08-20T07:27:54.654Z,5280
2017-08-20T07:28:56.544Z,5408
2017-08-20T07:29:58.496Z,5568
2017-08-20T07:31:00.355Z,5812
2017-08-20T07:32:14.530Z,5944
2017-08-20T07:33:16.417Z,6140
2017-08-20T07:34:18.306Z,6216
2017-08-20T07:35:20.190Z,6236
2017-08-20T07:36:22.352Z,6312
2017-08-20T07:37:24.173Z,6364
2017-08-20T07:38:26.061Z,6348
2017-08-20T07:39:27.943Z,6312
2017-08-20T07:40:29.830Z,6156
2017-08-20T07:41:43.991Z,6056
2017-08-20T07:42:45.878Z,6116
2017-08-20T07:43:47.761Z,6156
2017-08-20T07:44:49.658Z,6080
2017-08-20T07:45:51.488Z,6008
2017-08-20T07:46:53.316Z,5928
2017-08-20T07:47:55.204Z,5860
2017-08-20T07:48:57.098Z,5964
2017-08-20T07:49:58.981Z,6076
2017-08-20T07:51:13.147Z,6168
2017-08-20T07:52:15.033Z,6276
2017-08-20T07:53:16.914Z,6408
2017-08-20T07:54:18.822Z,6264
2017-08-20T07:55:20.652Z,6052
2017-08-20T07:56:22.479Z,5924
2017-08-20T07:57:24.381Z,5764
2017-08-20T07:58:26.267Z,5672
2017-08-20T07:59:28.151Z,5540
2017-08-20T08:00:42.310Z,5568
2017-08-20T08:01:44.197Z,5588
2017-08-20T08:02:46.087Z,5624
2017-08-20T08:03:47.970Z,5620
2017-08-20T08:04:49.809Z,5764
2017-08-20T08:05:51.959Z,5868
2017-08-20T08:06:53.784Z,5768
2017-08-20T08:07:55.609Z,5716
2017-08-20T08:08:57.532Z,5748
2017-08-20T08:10:11.674Z,6088
2017-08-20T08:11:13.563Z,6348
2017-08-20T08:12:15.452Z,6448
2017-08-20T08:13:17.342Z,6532
2017-08-20T08:14:19.182Z,6660
2017-08-20T08:15:21.017Z,6704
2017-08-20T08:16:22.906Z,7008
2017-08-20T08:17:24.831Z,7880
2017-08-20T08:18:26.708Z,8812
2017-08-20T08:19:40.918Z,9348
2017-08-20T08:20:42.808Z,9084
2017-08-20T08:21:44.701Z,9096
2017-08-20T08:22:46.602Z,10400
2017-08-20T08:23:48.425Z,11516
2017-08-20T08:24:50.259Z,12948
2017-08-20T08:25:52.146Z,14944
2017-08-20T08:26:54.060Z,15304
2017-08-20T08:27:55.942Z,14092
2017-08-20T08:29:10.112Z,11564
2017-08-20T08:30:12.018Z,10884
2017-08-20T08:31:13.909Z,10644
2017-08-20T08:32:15.802Z,12392
2017-08-20T08:33:17.642Z,14116
2017-08-20T08:34:19.479Z,14900
2017-08-20T08:35:21.372Z,15904
2017-08-20T08:36:23.264Z,15852
2017-08-20T08:37:25.164Z,15632
2017-08-20T08:38:39.319Z,15632
2017-08-20T08:39:41.212Z,15132
2017-08-20T08:40:43.102Z,14408
2017-08-20T08:41:44.989Z,13340
2017-08-20T08:42:46.826Z,12052
2017-08-20T08:43:48.654Z,11568
2017-08-20T08:44:50.549Z,10268
2017-08-20T08:45:52.451Z,11168
2017-08-20T08:46:54.345Z,12608
2017-08-20T08:48:08.508Z,13636
2017-08-20T08:49:10.410Z,14136
2017-08-20T08:50:12.307Z,13752
2017-08-20T08:51:14.208Z,13164
2017-08-20T08:52:16.046Z,12600
2017-08-20T08:53:17.868Z,12932
2017-08-20T08:54:19.767Z,13080
2017-08-20T08:55:21.667Z,13156
2017-08-20T08:56:23.549Z,12660
2017-08-20T08:57:37.725Z,11640
2017-08-20T08:58:39.610Z,10188
2017-08-20T08:59:41.505Z,9020
2017-08-20T09:00:43.389Z,7916
2017-08-20T09:01:45.228Z,6880
2017-08-20T09:02:47.066Z,6232
2017-08-20T09:03:48.951Z,5844
2017-08-20T09:04:50.849Z,5872
2017-08-20T09:05:52.744Z,6220
2017-08-20T09:07:06.901Z,7408
2017-08-20T09:08:08.799Z,8784
2017-08-20T09:09:10.679Z,9244
2017-08-20T09:10:12.576Z,9324
2017-08-20T09:11:14.406Z,9024
2017-08-20T09:12:16.232Z,9120
2017-08-20T09:13:18.119Z,9476
2017-08-20T09:14:20.024Z,9048
2017-08-20T09:15:21.907Z,7904
2017-08-20T09:16:36.102Z,7216
2017-08-20T09:17:37.983Z,7164
2017-08-20T09:18:39.875Z,7120
2017-08-20T09:19:41.767Z,6972
2017-08-20T09:20:43.597Z,7340
2017-08-20T09:21:45.427Z,7800
2017-08-20T09:22:47.326Z,9020
2017-08-20T09:23:49.216Z,9064
2017-08-20T09:24:51.096Z,8172
2017-08-20T09:26:05.276Z,6908
2017-08-20T09:27:07.162Z,6476
2017-08-20T09:28:09.050Z,6276
2017-08-20T09:29:10.943Z,6412
2017-08-20T09:30:12.775Z,6480
2017-08-20T09:31:14.614Z,6620
2017-08-20T09:32:16.499Z,7024
2017-08-20T09:33:18.396Z,7804
2017-08-20T09:34:20.284Z,8312
2017-08-20T09:35:34.458Z,8444
2017-08-20T09:36:36.351Z,8584
2017-08-20T09:37:38.241Z,8668
2017-08-20T09:38:40.143Z,8748
2017-08-20T09:39:41.971Z,9404
2017-08-20T09:40:43.814Z,10632
2017-08-20T09:41:45.704Z,11284
2017-08-20T09:42:47.599Z,10856
2017-08-20T09:43:49.499Z,9996
2017-08-20T09:45:03.667Z,9196
2017-08-20T09:46:05.560Z,8436
2017-08-20T09:47:07.450Z,8232
2017-08-20T09:48:09.333Z,8792
2017-08-20T09:49:11.174Z,9044
2017-08-20T09:50:13.017Z,8652
2017-08-20T09:51:14.904Z,7988
2017-08-20T09:52:16.799Z,7520
2017-08-20T09:53:18.689Z,7240
2017-08-20T09:54:32.905Z,7100
2017-08-20T09:55:34.794Z,7140
2017-08-20T09:56:36.688Z,6824
2017-08-20T09:57:38.583Z,6248
2017-08-20T09:58:40.414Z,6128
2017-08-20T09:59:42.244Z,6492
2017-08-20T10:00:44.139Z,6244
2017-08-20T10:01:46.039Z,6168
2017-08-20T10:02:47.925Z,6640
2017-08-20T10:04:02.090Z,7552
2017-08-20T10:05:03.987Z,8536
2017-08-20T10:06:05.874Z,8856
2017-08-20T10:07:07.765Z,8524
2017-08-20T10:08:09.598Z,8068
2017-08-20T10:09:11.428Z,7688
2017-08-20T10:10:13.337Z,7868
2017-08-20T10:11:15.221Z,8228
2017-08-20T10:12:17.116Z,8740
2017-08-20T10:13:31.280Z,9512
2017-08-20T10:14:33.165Z,9236
2017-08-20T10:15:35.052Z,8508
2017-08-20T10:16:36.957Z,7648
2017-08-20T10:17:38.777Z,6436
2017-08-20T10:18:40.610Z,5816
2017-08-20T10:19:42.495Z,5436
2017-08-20T10:20:44.391Z,5080
2017-08-20T10:21:46.277Z,5212
2017-08-20T10:23:00.440Z,4912
2017-08-20T10:24:02.327Z,4900
2017-08-20T10:25:04.223Z,5116
2017-08-20T10:26:06.122Z,4940
2017-08-20T10:27:07.951Z,4872
2017-08-20T10:28:09.779Z,4976
2017-08-20T10:29:11.667Z,5060
2017-08-20T10:30:13.561Z,5124
2017-08-20T10:31:15.459Z,5244
2017-08-20T10:32:29.640Z,5472
2017-08-20T10:33:31.529Z,5720
2017-08-20T10:34:33.428Z,6120
2017-08-20T10:35:35.313Z,6408
2017-08-20T10:36:37.148Z,6628
2017-08-20T10:37:38.984Z,6756
2017-08-20T10:38:40.878Z,6996
2017-08-20T10:39:42.769Z,7184
2017-08-20T10:40:44.653Z,7856
2017-08-20T10:41:58.816Z,8700
2017-08-20T10:43:00.701Z,9360
2017-08-20T10:44:02.601Z,9472
2017-08-20T10:45:04.482Z,9552
2017-08-20T10:46:06.317Z,9460
2017-08-20T10:47:08.158Z,9864
2017-08-20T10:48:10.045Z,10364
2017-08-20T10:49:11.938Z,11288
2017-08-20T10:50:13.832Z,12056
2017-08-20T10:51:27.994Z,12596
2017-08-20T10:52:29.893Z,13116
2017-08-20T10:53:31.775Z,13536
2017-08-20T10:54:33.663Z,14444
2017-08-20T10:55:35.502Z,15356
2017-08-20T10:56:37.334Z,15780
2017-08-20T10:57:39.220Z,15472
2017-08-20T10:58:41.122Z,14640
2017-08-20T10:59:43.010Z,13056
2017-08-20T11:00:57.180Z,12280
2017-08-20T11:01:59.069Z,11452
2017-08-20T11:03:00.971Z,11424
2017-08-20T11:04:02.869Z,11132
2017-08-20T11:05:04.702Z,10140
2017-08-20T11:06:06.536Z,9208
2017-08-20T11:07:08.434Z,8436
2017-08-20T11:08:10.324Z,7720
2017-08-20T11:09:12.218Z,7576
2017-08-20T11:10:26.386Z,7612
2017-08-20T11:11:28.279Z,8028
2017-08-20T11:12:30.157Z,8568
2017-08-20T11:13:32.047Z,9060
2017-08-20T11:14:33.922Z,9800
2017-08-20T11:15:35.793Z,10596
2017-08-20T11:16:37.689Z,11304
2017-08-20T11:17:39.590Z,11856
2017-08-20T11:18:41.482Z,12624
2017-08-20T11:19:55.651Z,12640
2017-08-20T11:20:57.537Z,11436
2017-08-20T11:21:59.429Z,9792
2017-08-20T11:23:01.330Z,8488
2017-08-20T11:24:03.162Z,7664
2017-08-20T11:25:04.993Z,7144
2017-08-20T11:26:06.875Z,6824
2017-08-20T11:27:08.772Z,6276
2017-08-20T11:28:10.676Z,6268
2017-08-20T11:29:24.868Z,6468
2017-08-20T11:30:26.750Z,6408
2017-08-20T11:31:28.643Z,6440
2017-08-20T11:32:30.535Z,6508
2017-08-20T11:33:32.372Z,6868
2017-08-20T11:34:34.211Z,7188
2017-08-20T11:35:36.104Z,7124
2017-08-20T11:36:37.991Z,6660
2017-08-20T11:37:39.882Z,6180
2017-08-20T11:38:54.057Z,6064
2017-08-20T11:39:55.943Z,5728
2017-08-20T11:40:57.835Z,5700
2017-08-20T11:41:59.720Z,5896
2017-08-20T11:43:01.544Z,6176
2017-08-20T11:44:03.381Z,6280
2017-08-20T11:45:05.268Z,6340
2017-08-20T11:46:07.164Z,6384
2017-08-20T11:47:09.055Z,6476
2017-08-20T11:48:23.223Z,6912
2017-08-20T11:49:25.107Z,7340
2017-08-20T11:50:27.003Z,7348
2017-08-20T11:51:28.889Z,7104
2017-08-20T11:52:30.719Z,7184
2017-08-20T11:53:32.558Z,7552
2017-08-20T11:54:34.449Z,7908
2017-08-20T11:55:36.343Z,8552
2017-08-20T11:56:38.293Z,9120
2017-08-20T11:57:52.449Z,9604
2017-08-20T11:58:54.342Z,10008
2017-08-20T11:59:56.234Z,10440
2017-08-20T12:00:58.128Z,10552
2017-08-20T12:01:59.966Z,10620
2017-08-20T12:03:01.799Z,10656
2017-08-20T12:04:03.707Z,10536
2017-08-20T12:05:05.595Z,10456
2017-08-20T12:06:07.488Z,10744
2017-08-20T12:07:21.655Z,12036
2017-08-20T12:08:23.547Z,13400
2017-08-20T12:09:25.443Z,13880
2017-08-20T12:10:27.341Z,13532
2017-08-20T12:11:29.180Z,13364
2017-08-20T12:12:31.016Z,13308
2017-08-20T12:13:32.912Z,12804
2017-08-20T12:14:34.808Z,12004
2017-08-20T12:15:36.694Z,10800
2017-08-20T12:16:50.862Z,9836
2017-08-20T12:17:52.757Z,8780
2017-08-20T12:18:54.634Z,8028
2017-08-20T12:19:56.529Z,7612
2017-08-20T12:20:58.360Z,7272
2017-08-20T12:22:00.189Z,6896
2017-08-20T12:23:02.081Z,6612
2017-08-20T12:24:03.968Z,6744
2017-08-20T12:25:05.855Z,6796
2017-08-20T12:26:20.032Z,6640
2017-08-20T12:27:21.930Z,6552
2017-08-20T12:28:23.829Z,6664
2017-08-20T12:29:25.715Z,6800
2017-08-20T12:30:27.541Z,7212
2017-08-20T12:31:29.371Z,7536
2017-08-20T12:32:31.284Z,7980
2017-08-20T12:33:33.174Z,8756
2017-08-20T12:34:35.074Z,10408
2017-08-20T12:35:49.235Z,11188
2017-08-20T12:36:51.135Z,10760
2017-08-20T12:37:53.017Z,10424
2017-08-20T12:38:54.908Z,10492
2017-08-20T12:39:56.748Z,10640
2017-08-20T12:40:58.585Z,10568
2017-08-20T12:42:00.475Z,10092
2017-08-20T12:43:02.360Z,10016
2017-08-20T12:44:04.264Z,10032
2017-08-20T12:45:18.430Z,9844
2017-08-20T12:46:20.330Z,9776
2017-08-20T12:47:22.220Z,9824
2017-08-20T12:48:24.108Z,9492
2017-08-20T12:49:25.951Z,8820
2017-08-20T12:50:27.778Z,7936
2017-08-20T12:51:29.672Z,7096
2017-08-20T12:52:31.562Z,6660
2017-08-20T12:53:33.457Z,6280
2017-08-20T12:54:47.627Z,6248
2017-08-20T12:55:49.515Z,6020
2017-08-20T12:56:51.407Z,5920
2017-08-20T12:57:53.293Z,5856
2017-08-20T12:58:55.137Z,5836
2017-08-20T12:59:56.966Z,5812
2017-08-20T13:00:58.864Z,5772
2017-08-20T13:02:00.752Z,5756
2017-08-20T13:03:02.644Z,5712
2017-08-20T13:04:16.806Z,5448
2017-08-20T13:05:18.699Z,5360
2017-08-20T13:06:20.597Z,5492
2017-08-20T13:07:22.493Z,5516
2017-08-20T13:08:24.322Z,5592
2017-08-20T13:09:26.158Z,5724
2017-08-20T13:10:28.051Z,5820
2017-08-20T13:11:29.932Z,5948
2017-08-20T13:12:31.826Z,6196
2017-08-20T13:13:46.045Z,6480
2017-08-20T13:14:47.939Z,6640
2017-08-20T13:15:49.824Z,6812
2017-08-20T13:16:51.714Z,6880
2017-08-20T13:17:53.547Z,7008
2017-08-20T13:18:55.378Z,7052
2017-08-20T13:19:57.274Z,6788
2017-08-20T13:20:59.158Z,6388
2017-08-20T13:22:01.073Z,5956
2017-08-20T13:23:15.213Z,5580
2017-08-20T13:24:17.109Z,5464
2017-08-20T13:25:19.010Z,5408
2017-08-20T13:26:20.896Z,5380
2017-08-20T13:27:22.719Z,5392
2017-08-20T13:28:24.544Z,5184
2017-08-20T13:29:26.438Z,5252
2017-08-20T13:30:28.329Z,5416
2017-08-20T13:31:30.221Z,5660
2017-08-20T13:32:44.387Z,5592
2017-08-20T13:33:46.277Z,5540
2017-08-20T13:34:48.175Z,5348
2017-08-20T13:35:50.070Z,5300
2017-08-20T13:36:51.892Z,5560
2017-08-20T13:37:53.727Z,5976
2017-08-20T13:38:55.622Z,6288
2017-08-20T13:39:57.516Z,6940
2017-08-20T13:40:59.399Z,7456
2017-08-20T13:42:13.568Z,7640
2017-08-20T13:43:15.460Z,7428
2017-08-20T13:44:17.349Z,6912
2017-08-20T13:45:19.239Z,6268
2017-08-20T13:46:21.073Z,5796
2017-08-20T13:47:22.907Z,5552
2017-08-20T13:48:24.804Z,5460
2017-08-20T13:49:26.698Z,5436
2017-08-20T13:50:28.589Z,5392
2017-08-20T13:51:42.749Z,5380
2017-08-20T13:52:44.636Z,5736
2017-08-20T13:53:46.543Z,5884
2017-08-20T13:54:48.432Z,5840
2017-08-20T13:55:50.265Z,5352
2017-08-20T13:56:52.096Z,4960
2017-08-20T13:57:53.996Z,4876
2017-08-20T13:58:55.888Z,4912
2017-08-20T13:59:57.778Z,5028
2017-08-20T14:01:11.936Z,5332
2017-08-20T14:02:13.826Z,5696
2017-08-20T14:03:16.050Z,5920
2017-08-20T14:04:18.280Z,5868
2017-08-20T14:05:20.460Z,6036
2017-08-20T14:06:22.629Z,6148
2017-08-20T14:07:24.845Z,6452
2017-08-20T14:08:27.127Z,6800
2017-08-20T14:09:29.221Z,7276
2017-08-20T14:10:43.428Z,7800
2017-08-20T14:11:45.321Z,8460
2017-08-20T14:12:47.212Z,8808
2017-08-20T14:13:49.110Z,8960
2017-08-20T14:14:50.943Z,8648
2017-08-20T14:15:52.790Z,8352
2017-08-20T14:16:54.682Z,8144
2017-08-20T14:17:56.569Z,8180
2017-08-20T14:18:58.473Z,7948
2017-08-20T14:20:12.667Z,7380
2017-08-20T14:21:14.542Z,7044